UAL41 KCOS-KDEN
Flight info
| Callsign | UAL41 |
|---|---|
| Flight time | 0h 19m |
| Altitude | 16000 |
| Route | ADANE V389 LUFSE/N0372F150 JEFEL/N0367F140 |
| Aircraft | B78X/H-SDE1E2E3FGHIJ2J3J4J5M1RWXY/LB1D1 |
Departure
| Time | 2026-05-05 03:44 |
|---|---|
| Airport | City of Colorado Springs Municipal Airport (KCOS) |
Arrival
| Time | 2026-05-05 04:03 |
|---|---|
| Airport | Denver International Airport (KDEN) |
| Time | Latitude | Longitude | Altitude | Speed | Heading |
|---|---|---|---|---|---|
| 2026-05-05 03:27 | 38.81497 | -104.70129 | 6199 ft | 0 kts | 225° |
| 2026-05-05 03:35 | 38.81477 | -104.70147 | 6200 ft | 5 kts | 204° |
| 2026-05-05 03:35 | 38.81431 | -104.70138 | 6199 ft | 9 kts | 155° |
| 2026-05-05 03:36 | 38.81371 | -104.70073 | 6198 ft | 14 kts | 136° |
| 2026-05-05 03:36 | 38.81288 | -104.69968 | 6199 ft | 19 kts | 134° |
| 2026-05-05 03:36 | 38.81188 | -104.69840 | 6198 ft | 21 kts | 135° |
| 2026-05-05 03:36 | 38.81101 | -104.69727 | 6199 ft | 20 kts | 135° |
| 2026-05-05 03:37 | 38.81002 | -104.69601 | 6199 ft | 20 kts | 136° |
| 2026-05-05 03:37 | 38.80908 | -104.69489 | 6199 ft | 18 kts | 135° |
| 2026-05-05 03:37 | 38.80820 | -104.69374 | 6199 ft | 18 kts | 135° |
| 2026-05-05 03:37 | 38.80732 | -104.69263 | 6199 ft | 18 kts | 135° |
| 2026-05-05 03:38 | 38.80646 | -104.69150 | 6199 ft | 17 kts | 135° |
| 2026-05-05 03:38 | 38.80561 | -104.69042 | 6200 ft | 17 kts | 135° |
| 2026-05-05 03:38 | 38.80478 | -104.68935 | 6199 ft | 17 kts | 135° |
| 2026-05-05 03:38 | 38.80394 | -104.68832 | 6199 ft | 16 kts | 138° |
| 2026-05-05 03:39 | 38.80304 | -104.68789 | 6200 ft | 13 kts | 177° |
| 2026-05-05 03:39 | 38.80217 | -104.68789 | 6200 ft | 12 kts | 180° |
| 2026-05-05 03:39 | 38.80120 | -104.68788 | 6200 ft | 17 kts | 180° |
| 2026-05-05 03:39 | 38.79981 | -104.68787 | 6199 ft | 25 kts | 179° |
| 2026-05-05 03:40 | 38.79802 | -104.68787 | 6199 ft | 30 kts | 181° |
| 2026-05-05 03:40 | 38.79564 | -104.68790 | 6198 ft | 38 kts | 180° |
| 2026-05-05 03:40 | 38.79279 | -104.68792 | 6199 ft | 44 kts | 180° |
| 2026-05-05 03:40 | 38.78952 | -104.68790 | 6199 ft | 49 kts | 180° |
| 2026-05-05 03:41 | 38.78620 | -104.68790 | 6199 ft | 47 kts | 180° |
| 2026-05-05 03:41 | 38.78305 | -104.68790 | 6199 ft | 44 kts | 180° |
| 2026-05-05 03:41 | 38.78081 | -104.68792 | 6199 ft | 29 kts | 181° |
| 2026-05-05 03:41 | 38.77938 | -104.68782 | 6198 ft | 14 kts | 152° |
| 2026-05-05 03:42 | 38.77917 | -104.68731 | 6199 ft | 0 kts | 91° |
| 2026-05-05 03:42 | 38.77917 | -104.68727 | 6199 ft | 3 kts | 90° |
| 2026-05-05 03:42 | 38.77917 | -104.68674 | 6198 ft | 9 kts | 90° |
| 2026-05-05 03:43 | 38.77917 | -104.68631 | 6197 ft | 2 kts | 89° |
| 2026-05-05 03:43 | 38.77934 | -104.68596 | 6197 ft | 5 kts | 38° |
| 2026-05-05 03:43 | 38.77968 | -104.68586 | 6196 ft | 7 kts | 8° |
| 2026-05-05 03:43 | 38.78052 | -104.68580 | 6197 ft | 25 kts | 1° |
| 2026-05-05 03:44 | 38.78487 | -104.68580 | 6200 ft | 102 kts | 0° |
| 2026-05-05 03:44 | 38.79443 | -104.68583 | 6211 ft | 173 kts | 359° |
| 2026-05-05 03:44 | 38.80733 | -104.68618 | 6820 ft | 200 kts | 1° |
| 2026-05-05 03:44 | 38.82240 | -104.68166 | 7058 ft | 238 kts | 16° |
| 2026-05-05 03:45 | 38.83845 | -104.67475 | 7725 ft | 248 kts | 18° |
| 2026-05-05 03:45 | 38.85289 | -104.66226 | 8147 ft | 258 kts | 46° |
| 2026-05-05 03:45 | 38.86206 | -104.64222 | 8558 ft | 269 kts | 71° |
| 2026-05-05 03:45 | 38.86702 | -104.61868 | 9425 ft | 278 kts | 74° |
| 2026-05-05 03:46 | 38.87213 | -104.59486 | 10143 ft | 278 kts | 73° |
| 2026-05-05 03:46 | 38.87771 | -104.57021 | 10870 ft | 298 kts | 73° |
| 2026-05-05 03:46 | 38.88368 | -104.54386 | 11570 ft | 323 kts | 73° |
| 2026-05-05 03:46 | 38.89019 | -104.51472 | 12352 ft | 343 kts | 74° |
| 2026-05-05 03:47 | 38.89688 | -104.48456 | 12898 ft | 358 kts | 74° |
| 2026-05-05 03:47 | 38.90111 | -104.46551 | 13034 ft | 364 kts | 73° |
| 2026-05-05 03:47 | 38.90989 | -104.43800 | 13041 ft | 370 kts | 57° |
| 2026-05-05 03:47 | 38.92723 | -104.41405 | 13039 ft | 371 kts | 34° |
| 2026-05-05 03:48 | 38.94815 | -104.40049 | 13026 ft | 362 kts | 14° |
| 2026-05-05 03:48 | 38.97111 | -104.39613 | 13028 ft | 360 kts | 1° |
| 2026-05-05 03:48 | 38.99618 | -104.39463 | 13021 ft | 359 kts | 359° |
| 2026-05-05 03:48 | 39.02116 | -104.39386 | 13014 ft | 360 kts | 359° |
| 2026-05-05 03:49 | 39.04620 | -104.39285 | 13006 ft | 360 kts | 360° |
| 2026-05-05 03:49 | 39.07127 | -104.39143 | 12997 ft | 359 kts | 0° |
| 2026-05-05 03:49 | 39.09596 | -104.39010 | 12989 ft | 359 kts | 360° |
| 2026-05-05 03:49 | 39.12093 | -104.38891 | 12975 ft | 358 kts | 359° |
| 2026-05-05 03:50 | 39.14585 | -104.38776 | 12969 ft | 359 kts | 360° |
| 2026-05-05 03:50 | 39.17085 | -104.38649 | 12963 ft | 359 kts | 360° |
| 2026-05-05 03:50 | 39.19574 | -104.38504 | 12957 ft | 359 kts | 2° |
| 2026-05-05 03:50 | 39.21988 | -104.37658 | 12949 ft | 364 kts | 24° |
| 2026-05-05 03:51 | 39.24133 | -104.35886 | 12933 ft | 366 kts | 33° |
| 2026-05-05 03:51 | 39.26198 | -104.33957 | 12925 ft | 366 kts | 35° |
| 2026-05-05 03:51 | 39.28243 | -104.31995 | 12924 ft | 366 kts | 35° |
| 2026-05-05 03:51 | 39.30302 | -104.30054 | 12921 ft | 366 kts | 34° |
| 2026-05-05 03:52 | 39.32365 | -104.28195 | 12920 ft | 365 kts | 29° |
| 2026-05-05 03:52 | 39.34690 | -104.27074 | 12769 ft | 351 kts | 7° |
| 2026-05-05 03:52 | 39.37066 | -104.27052 | 12702 ft | 334 kts | 348° |
| 2026-05-05 03:52 | 39.39213 | -104.27967 | 12627 ft | 319 kts | 329° |
| 2026-05-05 03:53 | 39.40980 | -104.29618 | 12416 ft | 309 kts | 316° |
| 2026-05-05 03:53 | 39.42569 | -104.31426 | 12150 ft | 300 kts | 316° |
| 2026-05-05 03:53 | 39.44122 | -104.33223 | 11841 ft | 302 kts | 316° |
| 2026-05-05 03:53 | 39.45688 | -104.35047 | 11513 ft | 301 kts | 317° |
| 2026-05-05 03:54 | 39.47240 | -104.36838 | 11186 ft | 299 kts | 317° |
| 2026-05-05 03:54 | 39.48809 | -104.38645 | 10862 ft | 303 kts | 318° |
| 2026-05-05 03:54 | 39.50366 | -104.40445 | 10538 ft | 296 kts | 318° |
| 2026-05-05 03:54 | 39.51768 | -104.42068 | 10347 ft | 287 kts | 318° |
| 2026-05-05 03:55 | 39.53095 | -104.43604 | 10232 ft | 274 kts | 318° |
| 2026-05-05 03:55 | 39.54480 | -104.45210 | 9995 ft | 260 kts | 319° |
| 2026-05-05 03:55 | 39.55797 | -104.46736 | 9745 ft | 249 kts | 319° |
| 2026-05-05 03:55 | 39.57066 | -104.48205 | 9480 ft | 239 kts | 319° |
| 2026-05-05 03:56 | 39.58019 | -104.49309 | 9279 ft | 233 kts | 319° |
| 2026-05-05 03:56 | 39.59209 | -104.50690 | 9059 ft | 225 kts | 319° |
| 2026-05-05 03:56 | 39.60359 | -104.52026 | 8833 ft | 219 kts | 319° |
| 2026-05-05 03:56 | 39.61476 | -104.53325 | 8614 ft | 213 kts | 319° |
| 2026-05-05 03:57 | 39.62562 | -104.54588 | 8415 ft | 207 kts | 319° |
| 2026-05-05 03:57 | 39.63600 | -104.55794 | 8219 ft | 199 kts | 319° |
| 2026-05-05 03:57 | 39.64600 | -104.56957 | 8109 ft | 186 kts | 319° |
| 2026-05-05 03:57 | 39.65529 | -104.58040 | 8016 ft | 173 kts | 319° |
| 2026-05-05 03:58 | 39.66413 | -104.59066 | 7908 ft | 170 kts | 319° |
| 2026-05-05 03:58 | 39.67285 | -104.60082 | 7826 ft | 168 kts | 319° |
| 2026-05-05 03:58 | 39.68022 | -104.61248 | 7662 ft | 170 kts | 292° |
| 2026-05-05 03:58 | 39.68108 | -104.62253 | 7619 ft | 171 kts | 273° |
| 2026-05-05 03:59 | 39.68107 | -104.63799 | 7613 ft | 172 kts | 272° |
| 2026-05-05 03:59 | 39.68158 | -104.65348 | 7592 ft | 171 kts | 276° |
| 2026-05-05 03:59 | 39.68697 | -104.66656 | 7412 ft | 166 kts | 325° |
| 2026-05-05 03:59 | 39.69787 | -104.66961 | 7338 ft | 162 kts | 1° |
| 2026-05-05 04:00 | 39.70902 | -104.66754 | 7346 ft | 163 kts | 10° |
| 2026-05-05 04:00 | 39.72023 | -104.66501 | 7312 ft | 161 kts | 10° |
| 2026-05-05 04:00 | 39.73144 | -104.66314 | 7224 ft | 163 kts | 2° |
| 2026-05-05 04:00 | 39.74262 | -104.66165 | 7062 ft | 159 kts | 2° |
| 2026-05-05 04:01 | 39.75372 | -104.66129 | 6919 ft | 156 kts | 1° |
| 2026-05-05 04:01 | 39.76493 | -104.66125 | 6781 ft | 160 kts | 1° |
| 2026-05-05 04:01 | 39.77608 | -104.66141 | 6651 ft | 163 kts | 2° |
| 2026-05-05 04:01 | 39.78731 | -104.66145 | 6476 ft | 161 kts | 1° |
| 2026-05-05 04:02 | 39.79851 | -104.66128 | 6178 ft | 156 kts | 1° |
| 2026-05-05 04:02 | 39.80959 | -104.66078 | 5859 ft | 157 kts | 359° |
| 2026-05-05 04:02 | 39.82011 | -104.66065 | 5643 ft | 150 kts | 357° |
| 2026-05-05 04:02 | 39.82995 | -104.66058 | 5453 ft | 129 kts | 359° |
| 2026-05-05 04:03 | 39.83769 | -104.66045 | 5419 ft | 93 kts | 1° |
| 2026-05-05 04:03 | 39.84300 | -104.66032 | 5418 ft | 59 kts | 1° |
| 2026-05-05 04:03 | 39.84609 | -104.66037 | 5413 ft | 32 kts | 358° |
| 2026-05-05 04:03 | 39.84784 | -104.66081 | 5402 ft | 26 kts | 342° |
| 2026-05-05 04:04 | 39.84987 | -104.66213 | 5403 ft | 36 kts | 336° |
| 2026-05-05 04:04 | 39.85264 | -104.66243 | 5399 ft | 37 kts | 359° |
| 2026-05-05 04:04 | 39.85529 | -104.66237 | 5393 ft | 36 kts | 360° |
| 2026-05-05 04:04 | 39.85668 | -104.66266 | 5394 ft | 9 kts | 308° |
| 2026-05-05 04:05 | 39.85679 | -104.66426 | 5386 ft | 30 kts | 271° |
| 2026-05-05 04:05 | 39.85653 | -104.66735 | 5393 ft | 34 kts | 269° |
| 2026-05-05 04:05 | 39.85660 | -104.67026 | 5393 ft | 30 kts | 272° |
| 2026-05-05 04:05 | 39.85666 | -104.67242 | 5393 ft | 18 kts | 270° |
| 2026-05-05 04:06 | 39.85667 | -104.67394 | 5393 ft | 16 kts | 271° |
| 2026-05-05 04:06 | 39.85674 | -104.67506 | 5388 ft | 9 kts | 289° |
| 2026-05-05 04:06 | 39.85710 | -104.67552 | 5387 ft | 6 kts | 335° |
| 2026-05-05 04:06 | 39.85738 | -104.67556 | 5387 ft | 1 kts | 7° |
| 2026-05-05 04:07 | 39.85760 | -104.67553 | 5388 ft | 5 kts | 6° |
| 2026-05-05 04:07 | 39.85796 | -104.67551 | 5387 ft | 3 kts | 359° |
| 2026-05-05 04:07 | 39.85802 | -104.67552 | 5387 ft | 0 kts | 359° |
| 2026-05-05 04:07 | 39.85809 | -104.67552 | 5387 ft | 0 kts | 358° |
| 2026-05-05 04:08 | 39.85810 | -104.67552 | 5393 ft | 0 kts | 358° |